Time;durP1;ratioP1;P1;durP2;ratioP2;P2;SDS_P1;SDS_P2;PMS_P1;PMS_P2;Temp;Humidity;BMP_temperature;BMP_pressure;BME280_temperature;BME280_humidity;BME280_pressure;Samples;Min_cycle;Max_cycle;Signal;HPM_P1;HPM_P2
2022/07/10 00:01:38;;;;;;;4.80;2.93;;;23.80;63.30;;;-142.21;89.24;112049.66;5113420;28;20199;-75
2022/07/10 00:04:06;;;;;;;3.20;2.90;;;23.80;62.60;;;-142.21;88.81;112049.66;5111537;28;20226;-77
2022/07/10 00:06:33;;;;;;;3.23;2.93;;;23.70;62.40;;;-142.21;88.89;112049.66;5113356;28;20199;-78
2022/07/10 00:09:00;;;;;;;3.20;2.90;;;23.70;62.50;;;-142.21;88.89;112049.66;5111894;28;20691;-76
2022/07/10 00:11:27;;;;;;;3.30;3.00;;;23.70;62.50;;;-142.21;88.56;112049.66;5113654;28;20218;-77
2022/07/10 00:13:57;;;;;;;4.00;2.80;;;23.70;62.40;;;-142.21;88.55;112049.66;5113362;28;20283;-76
2022/07/10 00:16:24;;;;;;;3.00;2.80;;;23.70;63.20;;;-142.21;88.60;112049.66;5114548;28;20618;-77
2022/07/10 00:18:52;;;;;;;4.67;2.93;;;23.70;62.70;;;-142.21;88.52;112049.66;5113636;28;20235;-77
2022/07/10 00:21:20;;;;;;;2.90;2.67;;;23.60;62.70;;;-142.21;88.43;112049.66;5113729;28;20200;-77
2022/07/10 00:23:47;;;;;;;3.43;3.13;;;23.60;62.60;;;-142.21;88.36;112049.66;5112655;28;20581;-78
2022/07/10 00:26:15;;;;;;;3.20;2.90;;;23.50;62.40;;;-142.21;88.48;112049.66;5113901;28;20754;-77
2022/07/10 00:28:42;;;;;;;3.10;2.90;;;23.50;62.60;;;-142.21;89.57;112049.66;5113898;28;20203;-78
2022/07/10 00:31:11;;;;;;;3.83;2.80;;;23.50;63.20;;;-142.21;89.70;112049.66;5112940;28;20743;-77
2022/07/10 00:33:38;;;;;;;5.13;3.03;;;23.40;63.30;;;-142.21;90.23;112049.66;5060046;28;20290;-77
2022/07/10 00:36:06;;;;;;;3.10;2.90;;;23.40;64.30;;;-142.21;90.48;112049.66;5112969;28;20202;-77
2022/07/10 00:38:34;;;;;;;3.03;2.73;;;23.30;63.60;;;-142.21;90.80;112049.66;5112295;28;20283;-76
2022/07/10 00:41:01;;;;;;;4.07;3.00;;;23.30;63.70;;;-142.21;90.79;112049.66;5109526;28;20607;-76
2022/07/10 00:43:28;;;;;;;3.43;3.13;;;23.20;63.60;;;-142.21;91.36;112049.66;5105310;28;20310;-75
2022/07/10 00:45:55;;;;;;;2.93;2.70;;;23.20;63.80;;;-142.21;91.53;112049.66;5112512;28;20208;-78
2022/07/10 00:48:23;;;;;;;3.70;3.10;;;23.10;63.90;;;-142.21;91.17;112049.66;5094817;28;20206;-77
2022/07/10 00:50:51;;;;;;;3.83;3.43;;;23.10;63.80;;;-142.21;90.80;112049.66;5111802;28;20242;-77
2022/07/10 00:53:19;;;;;;;3.73;3.43;;;23.10;63.70;;;-142.21;90.62;112049.66;5112156;28;20815;-77
2022/07/10 00:55:46;;;;;;;3.50;3.20;;;23.10;63.60;;;-142.21;89.89;112049.66;5112896;28;20210;-75
2022/07/10 00:58:14;;;;;;;6.77;3.70;;;23.00;63.30;;;-142.21;89.82;112049.66;5113816;28;20235;-75
2022/07/10 01:00:43;;;;;;;3.23;3.03;;;23.00;63.30;;;-142.21;89.28;112049.66;5095698;28;20235;-75
2022/07/10 01:03:10;;;;;;;5.30;3.50;;;23.00;63.10;;;-142.21;89.67;112049.66;5111566;28;20226;-75
2022/07/10 01:05:38;;;;;;;3.87;3.40;;;23.00;63.20;;;-142.21;89.53;112049.66;5112492;28;20290;-75
2022/07/10 01:08:06;;;;;;;4.23;3.83;;;23.00;63.10;;;-142.21;89.22;112049.66;5111917;28;20203;-75
2022/07/10 01:10:33;;;;;;;3.47;3.10;;;22.90;63.00;;;-142.21;89.04;112049.66;5104402;28;20318;-75
2022/07/10 01:13:03;;;;;;;3.53;3.23;;;22.80;63.60;;;-142.21;89.23;112049.66;5112042;28;20204;-76
2022/07/10 01:15:30;;;;;;;4.30;3.77;;;22.80;62.90;;;-142.21;89.00;112049.66;5112049;28;20204;-75
2022/07/10 01:17:58;;;;;;;4.77;3.90;;;22.80;62.90;;;-142.21;89.20;112049.66;5093469;28;20646;-75
2022/07/10 01:20:32;;;;;;;3.73;3.40;;;22.70;62.80;;;-142.21;88.81;112049.66;5111984;28;20203;-76
2022/07/10 01:23:01;;;;;;;4.03;3.73;;;22.70;62.90;;;-142.21;88.50;112049.66;5110023;28;20298;-77
2022/07/10 01:25:29;;;;;;;3.70;3.37;;;22.70;62.60;;;-142.21;87.43;112049.66;5112916;28;20269;-76
2022/07/10 01:27:56;;;;;;;3.87;3.10;;;22.70;62.10;;;-142.21;86.67;112049.66;5112579;28;20204;-76
2022/07/10 01:30:23;;;;;;;3.40;2.90;;;22.70;61.60;;;-142.21;85.88;112049.66;5112333;28;20204;-75
2022/07/10 01:32:50;;;;;;;4.87;2.93;;;22.70;61.30;;;-142.21;84.90;112049.66;5111578;28;20617;-77
2022/07/10 01:35:17;;;;;;;3.00;2.80;;;22.60;60.80;;;-142.21;84.30;112049.66;5112762;28;20195;-75
2022/07/10 01:37:45;;;;;;;2.83;2.57;;;22.70;60.60;;;-142.21;84.13;112049.66;5111651;28;20203;-75
2022/07/10 01:40:14;;;;;;;2.77;2.47;;;22.60;60.40;;;-142.21;84.15;112049.66;5111115;28;20292;-75
2022/07/10 01:42:41;;;;;;;4.17;2.77;;;22.60;60.20;;;-142.21;83.75;112049.66;5111937;28;20231;-74
2022/07/10 01:45:10;;;;;;;2.90;2.60;;;22.60;60.10;;;-142.21;83.83;112049.66;5110820;28;20201;-75
2022/07/10 01:47:37;;;;;;;3.47;2.67;;;22.60;60.10;;;-142.21;83.56;112049.66;5111856;28;20210;-74
2022/07/10 01:50:08;;;;;;;3.53;2.30;;;22.50;59.90;;;-142.21;83.66;112049.66;5110069;28;20198;-75
2022/07/10 01:52:35;;;;;;;2.40;2.13;;;22.50;59.90;;;-142.21;83.89;112049.66;5110679;28;20196;-77
2022/07/10 01:55:03;;;;;;;2.60;2.40;;;22.50;60.00;;;-142.21;83.82;112049.66;5111072;28;20195;-75
2022/07/10 01:57:32;;;;;;;2.70;2.50;;;22.50;59.90;;;-142.21;83.19;112049.66;5075491;28;20280;-76
2022/07/10 01:59:59;;;;;;;2.53;2.33;;;22.50;59.70;;;-142.21;83.20;112049.66;5092675;28;20705;-76
2022/07/10 02:02:26;;;;;;;2.70;2.40;;;22.50;59.60;;;-142.21;83.44;112049.66;5111595;28;20669;-75
2022/07/10 02:04:53;;;;;;;3.63;2.60;;;22.40;59.50;;;-142.21;83.27;112049.66;5076643;28;20208;-75
2022/07/10 02:07:22;;;;;;;2.60;2.40;;;22.40;59.50;;;-142.21;83.18;112049.66;5110934;28;20538;-75
2022/07/10 02:09:49;;;;;;;4.37;2.77;;;22.40;59.40;;;-142.21;83.25;112049.66;5111777;28;20228;-75
2022/07/10 02:12:17;;;;;;;2.70;2.27;;;22.40;59.40;;;-142.21;83.10;112049.66;5104310;28;20197;-75
2022/07/10 02:14:45;;;;;;;4.40;2.30;;;22.30;59.40;;;-142.21;82.76;112049.66;5111629;28;20206;-74
2022/07/10 02:17:13;;;;;;;2.60;2.40;;;22.30;59.40;;;-142.21;82.42;112049.66;5090794;28;20207;-77
2022/07/10 02:19:40;;;;;;;2.90;2.60;;;22.30;59.40;;;-142.21;82.39;112049.66;5110979;28;20196;-78
2022/07/10 02:22:07;;;;;;;2.60;2.40;;;22.20;59.30;;;-142.21;82.35;112049.66;5110418;28;20200;-75
2022/07/10 02:24:34;;;;;;;3.13;2.00;;;22.20;59.30;;;-142.21;82.38;112049.66;5111202;28;20695;-76
2022/07/10 02:27:01;;;;;;;2.93;2.33;;;22.20;59.30;;;-142.21;82.45;112049.66;5109580;28;20214;-79
2022/07/10 02:29:28;;;;;;;4.83;2.20;;;22.10;59.20;;;-142.21;82.31;112049.66;5112063;28;20211;-78
2022/07/10 02:31:57;;;;;;;2.70;2.17;;;22.10;59.20;;;-142.21;82.59;112049.66;5110363;28;20200;-78
2022/07/10 02:34:25;;;;;;;2.83;2.20;;;22.00;59.10;;;-142.21;82.78;112049.66;5110324;28;20191;-78
2022/07/10 02:36:52;;;;;;;2.87;2.03;;;22.00;59.70;;;-142.21;82.54;112049.66;5112073;28;20203;-78
2022/07/10 02:39:21;;;;;;;3.47;2.07;;;22.00;59.10;;;-142.21;82.54;112049.66;5112198;28;20206;-78
2022/07/10 02:41:49;;;;;;;4.53;2.37;;;21.90;59.00;;;-142.21;82.26;112049.66;5111467;28;20294;-79
2022/07/10 02:44:16;;;;;;;2.87;2.07;;;21.90;59.00;;;-142.21;82.59;112049.66;5110384;28;20223;-77
2022/07/10 02:46:43;;;;;;;2.23;2.03;;;21.90;59.80;;;-142.21;82.25;112049.66;5092179;28;20299;-80
2022/07/10 02:49:11;;;;;;;4.10;2.03;;;21.80;59.20;;;-142.21;82.38;112049.66;5091727;28;20202;-76
2022/07/10 02:51:39;;;;;;;2.50;2.00;;;21.80;59.30;;;-142.21;82.37;112049.66;5111345;28;20303;-79
2022/07/10 02:54:07;;;;;;;3.63;2.20;;;21.80;59.30;;;-142.21;82.73;112049.66;5111364;28;20572;-77
2022/07/10 02:56:35;;;;;;;2.83;2.10;;;21.70;59.30;;;-142.21;82.73;112049.66;5092773;28;20294;-77
2022/07/10 02:59:03;;;;;;;2.37;1.73;;;21.70;59.40;;;-142.21;82.68;112049.66;5110363;28;20250;-78
2022/07/10 03:01:30;;;;;;;2.30;2.00;;;21.70;59.40;;;-142.21;82.65;112049.66;5111775;28;20291;-77
2022/07/10 03:03:57;;;;;;;2.63;1.90;;;21.60;59.40;;;-142.21;82.83;112049.66;5109411;28;20224;-77
2022/07/10 03:06:26;;;;;;;3.37;1.90;;;21.60;59.40;;;-142.21;82.70;112049.66;5110449;28;20295;-77
2022/07/10 03:08:53;;;;;;;3.07;2.53;;;21.60;59.40;;;-142.21;82.44;112049.66;5092939;28;20207;-78
2022/07/10 03:11:21;;;;;;;2.23;2.00;;;21.60;59.40;;;-142.21;82.46;112049.66;5112068;28;20204;-77
2022/07/10 03:13:48;;;;;;;3.23;1.97;;;21.60;59.30;;;-142.21;82.35;112049.66;5113734;28;20192;-77
2022/07/10 03:16:15;;;;;;;3.23;2.00;;;21.50;59.20;;;-142.21;82.26;112049.66;5112820;28;20212;-77
2022/07/10 03:18:42;;;;;;;2.30;2.10;;;21.50;59.20;;;-142.21;82.16;112049.66;5114374;28;20214;-78
2022/07/10 03:21:09;;;;;;;4.23;2.07;;;21.50;59.20;;;-142.21;82.13;112049.66;5113988;28;20204;-78
2022/07/10 03:23:39;;;;;;;2.27;2.13;;;21.50;59.20;;;-142.21;81.99;112049.66;5113199;28;20320;-79
2022/07/10 03:26:07;;;;;;;3.50;2.13;;;21.40;59.10;;;-142.21;82.14;112049.66;5114064;28;20316;-78
2022/07/10 03:28:35;;;;;;;2.40;2.17;;;21.40;59.20;;;-142.21;82.02;112049.66;5114382;28;20210;-76
2022/07/10 03:31:03;;;;;;;3.60;2.13;;;21.40;59.20;;;-142.21;81.83;112049.66;5112789;28;20660;-77
2022/07/10 03:33:30;;;;;;;2.67;1.87;;;21.40;59.20;;;-142.21;82.34;112049.66;5114357;28;20203;-78
2022/07/10 03:35:57;;;;;;;2.43;2.00;;;21.40;59.20;;;-142.21;82.35;112049.66;5114761;28;20204;-77
2022/07/10 03:38:24;;;;;;;3.47;1.87;;;21.40;59.30;;;-142.21;82.42;112049.66;5114664;28;20573;-79
2022/07/10 03:40:53;;;;;;;2.97;1.90;;;21.30;59.20;;;-142.21;82.70;112049.66;5113841;28;20207;-78
2022/07/10 03:43:20;;;;;;;2.07;1.87;;;21.30;59.90;;;-142.21;82.59;112049.66;5113033;28;20310;-78
2022/07/10 03:45:47;;;;;;;3.47;2.03;;;21.30;59.30;;;-142.21;82.68;112049.66;5113592;28;20215;-77
2022/07/10 03:48:14;;;;;;;3.07;1.90;;;21.30;59.40;;;-142.21;82.94;112049.66;5113736;28;20290;-77
2022/07/10 03:50:42;;;;;;;3.40;2.13;;;21.30;59.50;;;-142.21;83.39;112049.66;5113574;28;20607;-75
2022/07/10 03:53:09;;;;;;;3.10;1.97;;;21.20;59.50;;;-142.21;83.62;112049.66;5114298;28;20614;-76
2022/07/10 03:55:36;;;;;;;5.33;2.40;;;21.20;59.70;;;-142.21;83.62;112049.66;5113550;28;20196;-76
2022/07/10 03:58:04;;;;;;;4.47;2.20;;;21.20;59.60;;;-142.21;83.88;112049.66;5112450;28;20340;-76
2022/07/10 04:00:33;;;;;;;2.23;2.03;;;21.20;59.70;;;-142.21;84.05;112049.66;5113699;28;20285;-76
2022/07/10 04:03:02;;;;;;;2.70;2.20;;;21.20;59.80;;;-142.21;84.02;112049.66;5111476;28;20250;-77
2022/07/10 04:05:30;;;;;;;2.93;1.97;;;21.20;59.80;;;-142.21;83.90;112049.66;5113629;28;20456;-77
2022/07/10 04:07:59;;;;;;;3.43;2.10;;;21.10;60.40;;;-142.21;84.60;112049.66;5113196;28;20211;-78
2022/07/10 04:10:28;;;;;;;3.50;2.20;;;21.10;59.80;;;-142.21;85.16;112049.66;5087830;28;20236;-77
2022/07/10 04:12:57;;;;;;;3.97;2.27;;;21.10;60.00;;;-142.21;85.84;112049.66;5092571;28;20239;-76
2022/07/10 04:15:26;;;;;;;4.83;2.10;;;21.10;60.20;;;-142.21;86.21;112049.66;5092853;28;20283;-76
2022/07/10 04:17:54;;;;;;;7.10;3.07;;;21.00;60.40;;;-142.21;86.30;112049.66;5090256;28;20215;-76
2022/07/10 04:20:23;;;;;;;2.93;2.30;;;21.10;60.50;;;-142.21;86.93;112049.66;5091902;28;20197;-76
2022/07/10 04:22:50;;;;;;;3.40;2.10;;;21.00;60.80;;;-142.21;86.43;112049.66;5092359;28;20201;-75
2022/07/10 04:25:17;;;;;;;5.70;2.33;;;21.00;60.80;;;-142.21;87.52;112049.66;5090959;28;20228;-75
2022/07/10 04:27:44;;;;;;;3.17;2.13;;;21.00;62.00;;;-142.21;87.25;112049.66;5070661;28;20209;-76
2022/07/10 04:30:15;;;;;;;3.60;2.20;;;21.00;61.10;;;-142.21;88.05;112049.66;5087463;28;20664;-76
2022/07/10 04:32:43;;;;;;;2.27;1.80;;;21.00;61.40;;;-142.21;88.80;112049.66;5091703;28;20204;-77
2022/07/10 04:35:10;;;;;;;3.23;2.00;;;21.00;61.80;;;-142.21;87.81;112049.66;5092334;28;20288;-78
2022/07/10 04:37:39;;;;;;;6.40;2.03;;;21.00;61.50;;;-142.21;88.65;112049.66;5092907;28;20641;-76
2022/07/10 04:40:09;;;;;;;2.97;2.00;;;21.00;61.70;;;-142.21;87.58;112049.66;5092905;28;20212;-77
2022/07/10 04:42:38;;;;;;;6.50;2.80;;;21.00;62.20;;;-142.21;87.65;112049.66;5091493;28;20276;-78
2022/07/10 04:45:06;;;;;;;12.97;3.80;;;21.00;61.50;;;-142.21;88.37;112049.66;5091034;28;20217;-78
2022/07/10 04:47:33;;;;;;;6.77;3.13;;;21.00;61.70;;;-142.21;88.14;112049.66;5091250;28;20553;-80
2022/07/10 04:50:02;;;;;;;4.00;2.10;;;21.00;61.70;;;-142.21;88.01;112049.66;5092569;28;20240;-79
2022/07/10 04:52:29;;;;;;;9.77;3.10;;;21.00;61.70;;;-142.21;88.24;112049.66;5092458;28;20688;-79
2022/07/10 04:54:56;;;;;;;6.07;2.37;;;21.00;61.60;;;-142.21;87.45;112049.66;5091672;28;20228;-80
2022/07/10 04:57:23;;;;;;;3.07;1.90;;;21.00;62.20;;;-142.21;87.04;112049.66;5090845;28;20232;-78
2022/07/10 04:59:51;;;;;;;7.30;2.40;;;21.00;61.40;;;-142.21;88.04;112049.66;5091799;28;20204;-78
2022/07/10 05:02:18;;;;;;;1.60;1.50;;;20.90;61.70;;;-142.21;87.14;112049.66;5091963;28;20231;-79
2022/07/10 05:04:45;;;;;;;4.00;1.87;;;20.90;61.40;;;-142.21;86.64;112049.66;5092602;28;20217;-78
2022/07/10 05:07:14;;;;;;;1.83;1.73;;;20.90;61.00;;;-142.21;86.13;112049.66;5090143;28;20339;-79
2022/07/10 05:09:41;;;;;;;1.97;1.50;;;20.90;60.80;;;-142.21;85.61;112049.66;5089498;28;20236;-76
2022/07/10 05:12:09;;;;;;;4.33;1.63;;;21.00;60.60;;;-142.21;85.71;112049.66;5090935;28;20291;-78
2022/07/10 05:14:36;;;;;;;3.30;1.50;;;21.00;60.50;;;-142.21;85.30;112049.66;5091435;28;20199;-79
2022/07/10 05:17:04;;;;;;;4.17;1.70;;;21.10;60.40;;;-142.21;84.25;112049.66;5090523;28;20208;-79
2022/07/10 05:19:31;;;;;;;2.47;1.70;;;21.10;60.00;;;-142.21;84.78;112049.66;5092692;28;20560;-79
2022/07/10 05:21:58;;;;;;;3.83;1.93;;;21.10;60.10;;;-142.21;84.69;112049.66;5090991;28;20216;-78
2022/07/10 05:24:27;;;;;;;3.57;1.83;;;21.10;60.00;;;-142.21;83.87;112049.66;5091242;28;20228;-78
2022/07/10 05:26:54;;;;;;;1.80;1.70;;;21.10;59.70;;;-142.21;83.59;112049.66;5091610;28;20262;-79
2022/07/10 05:29:21;;;;;;;2.17;1.97;;;21.20;59.70;;;-142.21;84.21;112049.66;5091814;28;20287;-79
2022/07/10 05:31:48;;;;;;;3.10;1.43;;;21.20;59.80;;;-142.21;84.28;112049.66;5091668;28;20823;-78
2022/07/10 05:34:15;;;;;;;2.53;1.80;;;21.20;60.50;;;-142.21;84.13;112049.66;5090695;28;20684;-78
2022/07/10 05:36:42;;;;;;;3.40;1.80;;;21.20;59.80;;;-142.21;82.78;112049.66;5090398;28;20222;-79
2022/07/10 05:39:09;;;;;;;4.70;1.90;;;21.20;60.00;;;-142.21;81.83;112049.66;5090758;28;20295;-78
2022/07/10 05:41:38;;;;;;;3.03;1.70;;;21.20;59.00;;;-142.21;82.13;112049.66;5090614;28;20279;-79
2022/07/10 05:44:05;;;;;;;3.20;1.83;;;21.20;59.10;;;-142.21;81.58;112049.66;5088408;28;20692;-79
2022/07/10 05:46:32;;;;;;;3.10;1.70;;;21.30;58.90;;;-142.21;80.87;112049.66;5091124;28;20197;-78
2022/07/10 05:48:59;;;;;;;2.87;1.77;;;21.30;58.60;;;-142.21;80.47;112049.66;5091554;28;20712;-79
2022/07/10 05:51:26;;;;;;;2.10;1.47;;;21.40;58.40;;;-142.21;80.45;112049.66;5089754;28;20200;-78
2022/07/10 05:53:53;;;;;;;2.07;1.30;;;21.40;58.50;;;-142.21;80.12;112049.66;5089821;28;20303;-79
2022/07/10 05:56:21;;;;;;;3.30;1.70;;;21.40;58.30;;;-142.21;80.31;112049.66;5090188;28;20295;-77
2022/07/10 05:58:50;;;;;;;2.40;1.80;;;21.30;58.60;;;-142.21;79.21;112049.66;5091059;28;20295;-78
2022/07/10 06:01:17;;;;;;;2.13;1.43;;;21.40;58.30;;;-142.21;79.30;112049.66;5091271;28;20209;-79
2022/07/10 06:03:45;;;;;;;2.53;1.63;;;21.40;58.30;;;-142.21;78.86;112049.66;5091529;28;20208;-78
2022/07/10 06:06:15;;;;;;;2.80;2.00;;;21.40;58.80;;;-142.21;78.66;112049.66;5090447;28;20659;-79
2022/07/10 06:08:42;;;;;;;3.00;1.70;;;21.40;58.00;;;-142.21;78.24;112049.66;5091022;28;20295;-79
2022/07/10 06:11:10;;;;;;;4.27;1.90;;;21.50;58.00;;;-142.21;77.61;112049.66;5111460;28;20222;-80
2022/07/10 06:13:38;;;;;;;4.07;2.10;;;21.60;57.80;;;-142.21;77.17;112049.66;5110849;28;20208;-77
2022/07/10 06:16:10;;;;;;;4.43;1.87;;;21.60;57.50;;;-142.21;76.87;112049.66;5110555;28;20238;-78
2022/07/10 06:18:43;;;;;;;2.37;1.87;;;21.70;57.50;;;-142.21;76.22;112049.66;5092748;28;20695;-77
2022/07/10 06:21:10;;;;;;;3.00;1.80;;;21.80;57.20;;;-142.21;76.31;112049.66;5109767;28;20200;-80
2022/07/10 06:23:37;;;;;;;3.90;1.70;;;21.90;57.30;;;-142.21;75.56;112049.66;5110322;28;20206;-79
2022/07/10 06:26:06;;;;;;;1.77;1.67;;;21.90;56.90;;;-142.21;76.40;112049.66;5112136;28;20274;-78
2022/07/10 06:28:35;;;;;;;3.40;1.70;;;22.00;57.10;;;-142.21;75.79;112049.66;5110081;28;20295;-78
2022/07/10 06:31:03;;;;;;;4.53;1.80;;;22.00;57.00;;;-142.21;75.04;112049.66;5111153;28;20200;-79
2022/07/10 06:33:32;;;;;;;3.37;1.53;;;22.00;56.60;;;-142.21;74.46;112049.66;5109536;28;20199;-78
2022/07/10 06:35:59;;;;;;;3.37;1.77;;;22.00;57.00;;;-142.21;75.09;112049.66;5111684;28;20584;-78
2022/07/10 06:38:27;;;;;;;3.57;2.13;;;22.00;56.70;;;-142.21;73.96;112049.66;5109100;28;20623;-78
2022/07/10 06:40:54;;;;;;;3.97;2.00;;;22.00;56.30;;;-142.21;72.18;112049.66;5094244;28;20278;-78
2022/07/10 06:43:21;;;;;;;2.33;1.67;;;22.00;55.90;;;-142.21;72.37;112049.66;5072043;28;20208;-78
2022/07/10 06:45:49;;;;;;;4.47;1.97;;;22.00;55.70;;;-142.21;71.55;112049.66;5114630;28;20220;-77
2022/07/10 06:48:17;;;;;;;4.10;1.40;;;22.00;55.60;;;-142.21;71.69;112049.66;5095656;28;20712;-78
2022/07/10 06:50:45;;;;;;;4.30;1.93;;;22.10;55.70;;;-142.21;70.97;112049.66;5114740;28;20207;-77
2022/07/10 06:53:13;;;;;;;2.20;1.60;;;22.10;55.30;;;-142.21;70.13;112049.66;5113730;28;20561;-79
2022/07/10 06:55:40;;;;;;;2.10;1.63;;;22.20;55.10;;;-142.21;70.40;112049.66;5114361;28;20752;-77
2022/07/10 06:58:07;;;;;;;4.63;1.90;;;22.20;55.20;;;-142.21;70.04;112049.66;5111626;28;20235;-77
2022/07/10 07:00:34;;;;;;;4.30;1.73;;;22.20;55.10;;;-142.21;68.79;112049.66;5111663;28;20204;-79
2022/07/10 07:03:01;;;;;;;2.97;1.70;;;22.30;55.10;;;-142.21;70.22;112049.66;5115178;28;20248;-79
2022/07/10 07:05:29;;;;;;;1.77;1.60;;;22.40;55.30;;;-142.21;68.53;112049.66;5112815;28;20338;-77
2022/07/10 07:07:57;;;;;;;6.87;2.07;;;22.50;54.90;;;-142.21;67.44;112049.66;5113364;28;20204;-78
2022/07/10 07:10:24;;;;;;;2.20;1.53;;;22.60;54.50;;;-142.21;67.83;112049.66;5114360;28;20262;-76
2022/07/10 07:12:53;;;;;;;2.93;1.70;;;22.70;54.60;;;-142.21;65.99;112049.66;5112191;28;20226;-79
2022/07/10 07:15:23;;;;;;;2.20;1.37;;;22.90;54.10;;;-142.21;64.81;112049.66;5090921;28;20302;-71
2022/07/10 07:18:07;;;;;;;3.00;1.87;;;22.90;53.80;;;-142.21;63.78;112049.66;5112386;28;20200;-72
2022/07/10 07:23:22;;;;;;;3.47;1.50;;;22.90;53.30;;;-142.21;64.44;112049.66;5115827;28;20655;-73
2022/07/10 07:25:49;;;;;;;3.57;1.70;;;22.90;53.30;;;-142.21;65.39;112049.66;5115637;28;20250;-72
2022/07/10 07:28:18;;;;;;;4.47;1.80;;;22.80;53.40;;;-142.21;63.23;112049.66;5115129;28;20672;-71
2022/07/10 07:30:46;;;;;;;3.73;1.57;;;22.80;52.90;;;-142.21;63.46;112049.66;5114831;28;20663;-71
2022/07/10 07:33:13;;;;;;;2.80;1.70;;;22.80;52.80;;;-142.21;62.76;112049.66;5093247;28;20224;-71
2022/07/10 07:35:41;;;;;;;1.60;1.50;;;22.70;52.70;;;-142.21;64.30;112049.66;5115301;28;20204;-70
2022/07/10 07:38:08;;;;;;;2.27;1.70;;;22.70;53.00;;;-142.21;64.56;112049.66;5115377;28;20200;-73
2022/07/10 07:40:38;;;;;;;3.17;1.50;;;22.70;53.10;;;-142.21;62.19;112049.66;5114036;28;20200;-73
2022/07/10 07:43:05;;;;;;;2.07;1.60;;;22.70;52.70;;;-142.21;62.35;112049.66;5115301;28;20268;-72
2022/07/10 07:45:33;;;;;;;3.33;1.50;;;22.70;52.70;;;-142.21;61.42;112049.66;5111592;28;20237;-72
2022/07/10 07:48:01;;;;;;;4.63;1.50;;;22.70;52.40;;;-142.21;59.36;112049.66;5115583;28;20234;-72
2022/07/10 07:50:32;;;;;;;2.63;2.03;;;22.70;51.90;;;-142.21;60.22;112049.66;5114432;28;20195;-72
2022/07/10 07:53:00;;;;;;;3.37;2.00;;;22.70;52.00;;;-142.21;59.87;112049.66;5115262;28;20192;-73
2022/07/10 07:55:29;;;;;;;3.33;1.50;;;22.80;52.00;;;-142.21;59.49;112049.66;5113674;28;20644;-69
2022/07/10 07:57:58;;;;;;;3.60;1.53;;;22.80;51.70;;;-142.21;59.63;112049.66;5110681;28;20219;-78
2022/07/10 08:00:28;;;;;;;5.13;1.93;;;22.90;51.80;;;-142.21;58.88;112049.66;5114008;28;20251;-75
2022/07/10 08:02:58;;;;;;;4.27;1.50;;;23.10;51.60;;;-142.21;58.46;112049.66;5115107;28;20198;-75
2022/07/10 08:05:25;;;;;;;1.50;1.37;;;23.30;51.60;;;-142.21;55.43;112049.66;5113564;28;20314;-77
2022/07/10 08:07:55;;;;;;;2.60;1.50;;;23.40;50.80;;;-142.21;54.10;112049.66;5114749;28;20288;-75
2022/07/10 08:10:25;;;;;;;2.67;1.80;;;23.40;50.10;;;-142.21;53.57;112049.66;5111388;28;20318;-76
2022/07/10 08:12:53;;;;;;;3.63;1.53;;;23.20;49.70;;;-142.21;53.37;112049.66;5112305;28;20211;-77
2022/07/10 08:15:23;;;;;;;2.00;1.40;;;23.20;49.90;;;-142.21;54.52;112049.66;5103986;28;20674;-75
2022/07/10 08:17:51;;;;;;;4.93;1.47;;;23.20;50.20;;;-142.21;54.32;112049.66;5091666;28;20270;-75
2022/07/10 08:20:19;;;;;;;1.77;1.00;;;23.20;50.10;;;-142.21;53.32;112049.66;5112734;28;20203;-75
2022/07/10 08:22:48;;;;;;;3.27;1.27;;;23.20;49.60;;;-142.21;52.01;112049.66;5113385;28;20817;-75
2022/07/10 08:25:16;;;;;;;3.30;1.70;;;23.30;49.40;;;-142.21;50.96;112049.66;5111771;28;20223;-74
2022/07/10 08:27:43;;;;;;;2.70;1.47;;;23.20;49.00;;;-142.21;52.30;112049.66;5112556;28;20196;-75
2022/07/10 08:30:12;;;;;;;4.97;1.47;;;23.30;49.20;;;-142.21;51.76;112049.66;5114845;28;20298;-75
2022/07/10 08:32:40;;;;;;;1.40;1.30;;;23.40;49.20;;;-142.21;51.44;112049.66;5113833;28;20257;-75
2022/07/10 08:35:11;;;;;;;2.37;1.07;;;23.40;48.80;;;-142.21;51.43;112049.66;5115035;28;20200;-75
2022/07/10 08:37:39;;;;;;;2.90;1.63;;;23.50;49.10;;;-142.21;51.90;112049.66;5114462;28;20195;-75
2022/07/10 08:40:10;;;;;;;3.20;1.17;;;23.60;49.20;;;-142.21;50.72;112049.66;5115053;28;20214;-75
2022/07/10 08:42:37;;;;;;;2.40;1.23;;;23.70;48.60;;;-142.21;50.63;112049.66;5113655;28;20227;-75
2022/07/10 08:45:06;;;;;;;3.20;1.53;;;23.80;48.60;;;-142.21;48.65;112049.66;5114040;28;20254;-74
2022/07/10 08:47:36;;;;;;;3.10;1.27;;;23.80;47.90;;;-142.21;47.41;112049.66;5113284;28;20211;-75
2022/07/10 08:50:13;;;;;;;2.30;1.33;;;23.80;47.40;;;-142.21;47.60;112049.66;5114276;28;20381;-75
2022/07/10 08:52:48;;;;;;;5.13;1.77;;;23.90;47.30;;;-142.21;47.60;112049.66;5093902;28;20678;-74
2022/07/10 08:55:15;;;;;;;1.03;0.97;;;23.80;47.20;;;-142.21;46.89;112049.66;5102190;28;20525;-75
2022/07/10 08:57:44;;;;;;;1.83;0.97;;;23.90;47.00;;;-142.21;47.51;112049.66;5113242;28;20246;-75
2022/07/10 09:00:12;;;;;;;5.43;1.50;;;23.90;47.10;;;-142.21;47.07;112049.66;5114326;28;20370;-75
2022/07/10 09:02:39;;;;;;;2.07;1.40;;;24.00;47.00;;;-142.21;46.68;112049.66;5112648;28;20206;-75
2022/07/10 09:05:09;;;;;;;1.27;1.10;;;24.10;46.80;;;-142.21;47.78;112049.66;5113392;28;20297;-76
2022/07/10 09:07:38;;;;;;;6.10;1.20;;;24.30;47.30;;;-142.21;46.42;112049.66;5113265;28;20256;-75
2022/07/10 09:10:09;;;;;;;1.57;1.17;;;24.40;47.00;;;-142.21;44.59;112049.66;5113754;28;20243;-75
2022/07/10 09:12:52;;;;;;;1.67;1.00;;;24.40;45.90;;;-142.21;43.42;112049.66;5112373;28;20615;-75
2022/07/10 09:15:22;;;;;;;2.70;1.50;;;24.40;44.70;;;-142.21;43.50;112049.66;5113572;28;20215;-75
2022/07/10 09:17:55;;;;;;;3.20;1.20;;;24.40;44.90;;;-142.21;44.91;112049.66;5061174;28;20205;-75
2022/07/10 09:20:34;;;;;;;1.53;1.10;;;24.50;45.90;;;-142.21;43.88;112049.66;5049444;28;20243;-75
2022/07/10 09:23:16;;;;;;;2.13;0.77;;;24.50;45.30;;;-142.21;43.88;112049.66;5093433;28;20637;-75
2022/07/10 09:25:45;;;;;;;2.43;0.93;;;24.40;45.20;;;-142.21;42.98;112049.66;5107738;28;20627;-75
2022/07/10 09:28:13;;;;;;;1.20;1.03;;;24.50;45.00;;;-142.21;43.17;112049.66;5113912;28;20210;-75
2022/07/10 09:30:41;;;;;;;2.17;0.83;;;24.50;45.60;;;-142.21;43.52;112049.66;5112847;28;20540;-75
2022/07/10 09:33:24;;;;;;;1.00;0.90;;;24.50;44.80;;;-142.21;42.88;112049.66;5113322;28;20231;-76
2022/07/10 09:36:11;;;;;;;2.00;1.10;;;24.60;44.50;;;-142.21;42.62;112049.66;5113496;28;20188;-75
2022/07/10 09:38:57;;;;;;;3.43;0.90;;;24.70;44.30;;;-142.21;42.14;112049.66;5112441;28;20194;-75
2022/07/10 09:41:30;;;;;;;0.87;0.73;;;24.70;44.20;;;-142.21;42.07;112049.66;5112872;28;20227;-75
2022/07/10 09:44:00;;;;;;;1.70;1.37;;;24.70;44.30;;;-142.21;42.36;112049.66;5113196;28;20191;-74
2022/07/10 09:46:33;;;;;;;1.43;0.90;;;24.70;44.50;;;-142.21;41.82;112049.66;5106885;28;20227;-75
2022/07/10 09:49:07;;;;;;;1.23;0.80;;;24.80;44.30;;;-142.21;41.28;112049.66;5093225;28;20568;-74
2022/07/10 09:51:38;;;;;;;1.33;0.90;;;24.90;43.90;;;-142.21;40.73;112049.66;5092571;28;20647;-75
2022/07/10 09:54:07;;;;;;;1.17;1.03;;;24.90;43.40;;;-142.21;41.08;112049.66;5099148;28;20256;-75
2022/07/10 09:56:44;;;;;;;2.87;1.20;;;24.90;43.60;;;-142.21;40.80;112049.66;5112317;28;20200;-75
2022/07/10 09:59:14;;;;;;;2.17;0.93;;;24.80;43.30;;;-142.21;40.82;112049.66;5113501;28;20234;-76
2022/07/10 10:01:46;;;;;;;1.07;0.70;;;24.80;43.50;;;-142.21;40.72;112049.66;5112487;28;20620;-75
2022/07/10 10:04:15;;;;;;;0.73;0.73;;;24.80;43.10;;;-142.21;40.88;112049.66;5113080;28;20196;-75
2022/07/10 10:06:47;;;;;;;1.60;0.63;;;24.90;43.60;;;-142.21;39.40;112049.66;5112678;28;20231;-75
2022/07/10 10:09:25;;;;;;;1.40;0.97;;;25.10;42.60;;;-142.21;39.85;112049.66;5111196;28;20338;-75